Time;durP1;ratioP1;P1;durP2;ratioP2;P2;SDS_P1;SDS_P2;PMS_P1;PMS_P2;Temp;Humidity;BMP_temperature;BMP_pressure;BME280_temperature;BME280_humidity;BME280_pressure;Samples;Min_cycle;Max_cycle;Signal;HPM_P1;HPM_P2
2021/04/17 00:01:27;;;;;;;2.65;2.25;;;6.80;99.90;;;;;;5059762;28;20272;-81
2021/04/17 00:03:53;;;;;;;4.63;1.52;;;6.70;99.90;;;;;;5059882;28;20252;-81
2021/04/17 00:06:19;;;;;;;2.70;1.77;;;6.60;99.90;;;;;;5058845;28;20230;-79
2021/04/17 00:08:45;;;;;;;2.17;1.35;;;6.60;99.90;;;;;;5059866;28;20203;-80
2021/04/17 00:11:13;;;;;;;3.00;1.77;;;6.70;99.90;;;;;;5058905;28;20210;-80
2021/04/17 00:13:39;;;;;;;2.13;2.00;;;6.60;99.90;;;;;;5059550;28;20621;-80
2021/04/17 00:16:06;;;;;;;2.70;1.98;;;6.60;99.90;;;;;;5059343;28;20226;-80
2021/04/17 00:18:32;;;;;;;3.08;1.60;;;6.50;99.90;;;;;;5058856;28;20207;-80
2021/04/17 00:20:58;;;;;;;3.83;1.80;;;6.50;99.90;;;;;;5059841;28;20199;-82
2021/04/17 00:23:24;;;;;;;3.83;2.20;;;6.50;99.90;;;;;;5061606;28;20207;-82
2021/04/17 00:25:50;;;;;;;2.35;2.15;;;6.50;99.90;;;;;;5060411;28;20226;-82
2021/04/17 00:28:17;;;;;;;2.10;1.90;;;6.60;99.90;;;;;;5060497;28;20207;-80
2021/04/17 00:30:43;;;;;;;4.78;2.42;;;6.60;99.90;;;;;;5060473;28;20202;-80
2021/04/17 00:33:09;;;;;;;2.00;1.55;;;6.60;99.90;;;;;;5059874;28;20199;-79
2021/04/17 00:35:35;;;;;;;1.98;1.63;;;6.80;99.90;;;;;;5069019;28;20249;-79
2021/04/17 00:38:01;;;;;;;2.28;1.77;;;6.70;99.90;;;;;;5062488;28;20207;-80
2021/04/17 00:40:28;;;;;;;2.60;2.35;;;6.70;99.90;;;;;;5058960;28;20257;-82
2021/04/17 00:42:54;;;;;;;3.00;1.67;;;6.70;99.90;;;;;;5059873;28;20252;-79
2021/04/17 00:45:21;;;;;;;2.28;1.88;;;6.60;99.90;;;;;;5059489;28;20713;-82
2021/04/17 00:47:47;;;;;;;1.60;1.50;;;6.80;99.90;;;;;;5061339;28;20219;-82
2021/04/17 00:50:14;;;;;;;2.30;1.70;;;6.60;99.90;;;;;;5059444;28;20210;-82
2021/04/17 00:52:40;;;;;;;3.65;1.70;;;6.70;99.90;;;;;;5059068;28;20207;-80
2021/04/17 00:55:08;;;;;;;1.50;1.40;;;6.70;99.90;;;;;;5059038;28;20219;-80
2021/04/17 00:57:34;;;;;;;1.85;1.55;;;6.70;99.90;;;;;;5057537;28;20202;-80
2021/04/17 01:00:00;;;;;;;1.67;1.58;;;6.60;99.90;;;;;;5063223;28;20203;-80
2021/04/17 01:02:31;;;;;;;2.95;1.70;;;6.60;99.90;;;;;;5074204;28;20207;-79
2021/04/17 01:05:00;;;;;;;1.77;1.58;;;6.70;99.90;;;;;;5073919;28;20223;-79
2021/04/17 01:07:29;;;;;;;2.00;1.80;;;6.50;99.90;;;;;;5064243;28;20226;-80
2021/04/17 01:10:07;;;;;;;4.13;1.48;;;6.50;99.90;;;;;;5056609;28;20210;-80
2021/04/17 01:12:34;;;;;;;2.00;1.67;;;6.50;99.90;;;;;;5056321;28;20278;-79
2021/04/17 01:15:03;;;;;;;3.72;1.75;;;6.60;99.90;;;;;;5057248;28;20219;-80
2021/04/17 01:17:31;;;;;;;3.80;2.08;;;6.60;99.90;;;;;;5056696;28;20248;-79
2021/04/17 01:20:05;;;;;;;2.25;1.70;;;6.70;99.90;;;;;;5056430;28;20669;-79
2021/04/17 01:22:32;;;;;;;2.08;1.98;;;6.70;99.90;;;;;;5059291;28;20238;-79
2021/04/17 01:25:05;;;;;;;6.72;1.90;;;6.80;99.90;;;;;;5058536;28;20266;-79
2021/04/17 01:27:32;;;;;;;1.83;1.65;;;6.80;99.90;;;;;;5058293;28;20214;-80
2021/04/17 01:29:59;;;;;;;2.00;1.58;;;6.60;99.90;;;;;;5057306;28;20628;-79
2021/04/17 01:32:28;;;;;;;1.70;1.60;;;6.70;99.90;;;;;;5059001;28;20582;-79
2021/04/17 01:34:54;;;;;;;2.63;2.17;;;6.60;99.90;;;;;;5056718;28;20726;-79
2021/04/17 01:37:38;;;;;;;2.85;1.42;;;6.70;99.90;;;;;;5067117;28;20179;-79
2021/04/17 01:40:05;;;;;;;3.45;2.38;;;6.60;99.90;;;;;;5064628;28;20206;-80
2021/04/17 01:42:33;;;;;;;4.55;1.80;;;6.60;99.90;;;;;;5057052;28;20580;-80
2021/04/17 01:44:59;;;;;;;1.85;1.70;;;6.50;99.90;;;;;;5056498;28;20227;-81
2021/04/17 01:47:25;;;;;;;2.35;1.98;;;6.40;99.90;;;;;;5057478;28;20227;-81
2021/04/17 01:49:53;;;;;;;3.78;1.65;;;6.30;99.90;;;;;;5057334;28;20198;-82
2021/04/17 01:52:24;;;;;;;2.08;1.38;;;6.20;99.90;;;;;;5058953;28;20268;-80
2021/04/17 01:54:54;;;;;;;2.38;1.67;;;6.20;99.90;;;;;;5060056;28;20296;-80
2021/04/17 01:57:24;;;;;;;2.60;1.52;;;6.10;99.90;;;;;;5059062;28;20183;-81
2021/04/17 01:59:51;;;;;;;2.10;1.55;;;6.20;99.90;;;;;;5058070;28;20608;-81
2021/04/17 02:02:18;;;;;;;1.95;1.70;;;6.20;99.90;;;;;;5057384;28;20206;-81
2021/04/17 02:04:44;;;;;;;2.58;1.95;;;6.00;99.90;;;;;;5058146;28;20642;-81
2021/04/17 02:07:11;;;;;;;2.35;2.00;;;6.30;99.90;;;;;;5057391;28;20701;-81
2021/04/17 02:09:37;;;;;;;2.38;2.17;;;6.30;99.90;;;;;;5057405;28;20234;-80
2021/04/17 02:12:04;;;;;;;17.40;2.50;;;6.30;99.90;;;;;;5057090;28;20260;-81
2021/04/17 02:14:30;;;;;;;3.08;1.77;;;6.30;99.90;;;;;;5056364;28;20203;-81
2021/04/17 02:17:04;;;;;;;4.97;2.15;;;6.20;99.90;;;;;;5056917;28;20206;-81
2021/04/17 02:19:34;;;;;;;4.85;2.13;;;6.20;99.90;;;;;;5057096;28;20249;-80
2021/04/17 02:22:01;;;;;;;3.58;2.03;;;6.10;99.90;;;;;;5056338;28;20187;-81
2021/04/17 02:24:29;;;;;;;1.77;1.60;;;6.30;99.90;;;;;;5055876;28;20207;-80
2021/04/17 02:26:56;;;;;;;1.60;1.50;;;6.40;99.90;;;;;;5055221;28;20254;-80
2021/04/17 02:29:22;;;;;;;2.85;2.03;;;6.40;99.90;;;;;;5056314;28;20577;-80
2021/04/17 02:31:51;;;;;;;1.58;1.48;;;6.30;99.90;;;;;;5055301;28;20209;-80
2021/04/17 02:34:19;;;;;;;8.00;3.28;;;6.30;99.90;;;;;;5054352;28;20199;-79
2021/04/17 02:36:46;;;;;;;1.60;1.50;;;6.30;99.90;;;;;;5054565;28;20728;-79
2021/04/17 02:39:12;;;;;;;2.45;1.27;;;6.30;99.90;;;;;;5055464;28;20215;-80
2021/04/17 02:41:38;;;;;;;2.95;2.20;;;6.30;99.90;;;;;;5055719;28;20569;-81
2021/04/17 02:44:04;;;;;;;5.05;1.75;;;6.20;99.90;;;;;;5056022;28;20203;-80
2021/04/17 02:46:31;;;;;;;1.92;1.75;;;6.40;99.90;;;;;;5060331;28;20246;-80
2021/04/17 02:48:57;;;;;;;4.68;2.25;;;6.50;99.90;;;;;;5057418;28;20257;-81
2021/04/17 02:51:24;;;;;;;3.80;2.10;;;6.30;99.90;;;;;;5056612;28;20207;-81
2021/04/17 02:53:51;;;;;;;4.03;1.70;;;6.30;99.90;;;;;;5055921;28;20252;-81
2021/04/17 02:56:18;;;;;;;3.20;1.55;;;6.50;99.90;;;;;;5058523;28;20257;-81
2021/04/17 02:58:44;;;;;;;2.60;1.80;;;6.50;99.90;;;;;;5059871;28;20574;-80
2021/04/17 03:01:11;;;;;;;1.90;1.80;;;6.60;99.90;;;;;;5059988;28;20226;-81
2021/04/17 03:03:38;;;;;;;2.38;2.08;;;6.60;99.90;;;;;;5062853;28;20619;-81
2021/04/17 03:06:04;;;;;;;1.85;1.30;;;6.60;99.90;;;;;;5060336;28;20227;-80
2021/04/17 03:08:31;;;;;;;1.80;1.65;;;6.50;99.90;;;;;;5061809;28;20229;-80
2021/04/17 03:10:57;;;;;;;2.80;2.63;;;6.50;99.90;;;;;;5063452;28;20253;-80
2021/04/17 03:13:23;;;;;;;4.25;1.80;;;6.40;99.90;;;;;;5061505;28;20199;-80
2021/04/17 03:15:49;;;;;;;1.60;1.50;;;6.40;99.90;;;;;;5060192;28;20234;-81
2021/04/17 03:18:15;;;;;;;4.82;1.80;;;6.30;99.90;;;;;;5066273;28;20203;-79
2021/04/17 03:20:41;;;;;;;1.65;1.55;;;6.60;99.90;;;;;;5069733;28;20202;-80
2021/04/17 03:23:07;;;;;;;3.50;2.15;;;6.70;99.90;;;;;;5063263;28;20268;-81
2021/04/17 03:25:34;;;;;;;2.83;1.92;;;6.70;99.90;;;;;;5060558;28;20258;-81
2021/04/17 03:28:00;;;;;;;3.78;2.08;;;6.70;99.90;;;;;;5059347;28;20222;-81
2021/04/17 03:30:28;;;;;;;1.88;1.70;;;6.60;99.90;;;;;;5059397;28;20210;-80
2021/04/17 03:32:55;;;;;;;3.75;1.90;;;6.50;99.90;;;;;;5060367;28;20202;-81
2021/04/17 03:35:21;;;;;;;1.65;1.52;;;6.60;99.90;;;;;;5059209;28;20233;-81
2021/04/17 03:37:47;;;;;;;2.20;1.77;;;6.60;99.90;;;;;;5059759;28;20329;-81
2021/04/17 03:40:14;;;;;;;1.95;1.85;;;6.70;99.90;;;;;;5059613;28;20554;-81
2021/04/17 03:42:42;;;;;;;1.75;1.65;;;6.70;99.90;;;;;;5059279;28;20203;-81
2021/04/17 03:45:09;;;;;;;1.83;1.73;;;6.70;99.90;;;;;;5058755;28;20227;-81
2021/04/17 03:47:36;;;;;;;3.72;2.00;;;6.70;99.90;;;;;;5059113;28;20578;-80
2021/04/17 03:50:03;;;;;;;3.55;1.45;;;6.60;99.90;;;;;;5070726;28;20229;-79
2021/04/17 03:52:29;;;;;;;1.50;1.40;;;6.60;99.90;;;;;;5069308;28;20203;-81
2021/04/17 03:54:55;;;;;;;4.93;2.22;;;6.60;99.90;;;;;;5059232;28;20251;-81
2021/04/17 03:57:21;;;;;;;1.75;1.65;;;6.70;99.90;;;;;;5059222;28;20206;-82
2021/04/17 03:59:48;;;;;;;5.45;2.20;;;6.70;99.90;;;;;;5059040;28;20661;-81
2021/04/17 04:02:14;;;;;;;2.15;2.00;;;6.70;99.90;;;;;;5059434;28;20199;-81
2021/04/17 04:04:40;;;;;;;4.18;2.20;;;6.50;99.90;;;;;;5065023;28;20203;-80
2021/04/17 04:07:07;;;;;;;3.85;2.00;;;6.50;99.90;;;;;;5065531;28;20309;-80
2021/04/17 04:09:33;;;;;;;5.63;2.10;;;6.60;99.90;;;;;;5064634;28;20203;-80
2021/04/17 04:12:00;;;;;;;2.78;1.80;;;6.60;99.90;;;;;;5060802;28;20214;-80
2021/04/17 04:14:26;;;;;;;1.90;1.65;;;6.60;99.90;;;;;;5063817;28;20222;-80
2021/04/17 04:16:53;;;;;;;3.15;1.95;;;6.60;99.90;;;;;;5064577;28;20223;-80
2021/04/17 04:19:19;;;;;;;4.03;2.42;;;6.70;99.90;;;;;;5064849;28;20589;-80
2021/04/17 04:21:45;;;;;;;4.43;2.20;;;6.60;99.90;;;;;;5065889;28;20268;-81
2021/04/17 04:24:11;;;;;;;3.50;2.30;;;6.60;99.90;;;;;;5059659;28;20210;-81
2021/04/17 04:26:38;;;;;;;3.97;1.55;;;6.70;99.90;;;;;;5094856;22;20246;-81
2021/04/17 04:29:04;;;;;;;2.20;2.08;;;6.70;99.90;;;;;;5071543;28;20245;-82
2021/04/17 04:31:31;;;;;;;6.57;2.00;;;6.50;99.90;;;;;;5069694;28;20214;-81
2021/04/17 04:33:57;;;;;;;2.65;1.98;;;6.50;99.90;;;;;;5073527;28;20206;-81
2021/04/17 04:36:24;;;;;;;3.15;2.30;;;6.60;99.90;;;;;;5067857;28;20215;-82
2021/04/17 04:38:50;;;;;;;2.47;1.75;;;6.60;99.90;;;;;;5065497;28;20207;-82
2021/04/17 04:41:16;;;;;;;2.90;2.65;;;6.60;99.90;;;;;;5066890;28;20237;-82
2021/04/17 04:43:42;;;;;;;4.05;2.00;;;6.80;99.90;;;;;;5071621;28;20237;-81
2021/04/17 04:46:08;;;;;;;2.80;1.95;;;6.70;99.90;;;;;;5073816;28;20238;-82
2021/04/17 04:48:34;;;;;;;5.32;3.67;;;6.70;99.90;;;;;;5072672;28;20211;-82
2021/04/17 04:51:01;;;;;;;2.10;1.90;;;6.60;99.90;;;;;;5071195;28;20586;-82
2021/04/17 04:53:27;;;;;;;2.60;1.95;;;6.70;99.90;;;;;;5066209;28;20202;-81
2021/04/17 04:55:53;;;;;;;4.85;1.45;;;6.70;99.90;;;;;;5066775;28;20230;-81
2021/04/17 04:58:20;;;;;;;1.70;1.55;;;6.50;99.90;;;;;;5067365;28;20207;-82
2021/04/17 05:00:46;;;;;;;4.22;2.05;;;6.60;99.90;;;;;;5074752;28;20199;-81
2021/04/17 05:03:15;;;;;;;2.47;1.55;;;6.70;99.90;;;;;;5068255;28;20203;-82
2021/04/17 05:05:42;;;;;;;3.03;1.70;;;6.60;99.90;;;;;;5066807;28;20230;-81
2021/04/17 05:08:09;;;;;;;1.73;1.63;;;6.50;99.90;;;;;;5067707;28;20222;-82
2021/04/17 05:10:35;;;;;;;3.10;1.73;;;6.60;99.90;;;;;;5067791;28;20207;-82
2021/04/17 05:13:01;;;;;;;2.15;1.95;;;6.50;99.90;;;;;;5073746;28;20241;-81
2021/04/17 05:15:27;;;;;;;1.90;1.75;;;6.60;99.90;;;;;;5072514;28;20227;-81
2021/04/17 05:17:53;;;;;;;3.65;1.50;;;6.60;99.90;;;;;;5069810;28;20204;-81
2021/04/17 05:20:20;;;;;;;2.03;1.77;;;6.90;99.90;;;;;;5069706;28;20199;-82
2021/04/17 05:22:46;;;;;;;4.20;1.63;;;6.30;99.90;;;;;;5068560;28;20199;-82
2021/04/17 05:25:13;;;;;;;2.67;2.40;;;6.20;99.90;;;;;;5070293;28;20210;-83
2021/04/17 05:27:40;;;;;;;3.28;1.77;;;6.40;99.90;;;;;;5068229;28;20207;-83
2021/04/17 05:30:07;;;;;;;5.72;2.22;;;6.40;99.90;;;;;;5069235;28;20214;-82
2021/04/17 05:32:33;;;;;;;2.40;2.10;;;6.40;99.90;;;;;;5068283;28;20207;-82
2021/04/17 05:34:59;;;;;;;2.10;1.83;;;6.20;99.90;;;;;;5068305;28;20233;-81
2021/04/17 05:37:25;;;;;;;3.58;1.73;;;6.40;99.90;;;;;;5069020;28;20436;-81
2021/04/17 05:39:51;;;;;;;3.65;2.10;;;6.50;99.90;;;;;;5069037;28;20214;-81
2021/04/17 05:42:18;;;;;;;2.20;2.00;;;6.50;99.90;;;;;;5068529;28;20207;-82
2021/04/17 05:44:44;;;;;;;2.85;2.00;;;6.40;99.90;;;;;;5071474;28;20225;-82
2021/04/17 05:47:11;;;;;;;4.10;2.42;;;6.50;99.90;;;;;;5070654;28;20223;-82
2021/04/17 05:49:37;;;;;;;2.70;1.50;;;6.50;99.90;;;;;;5066965;28;20446;-82
2021/04/17 05:52:04;;;;;;;3.50;2.08;;;6.30;99.90;;;;;;5069070;28;20206;-83
2021/04/17 05:54:30;;;;;;;3.35;2.47;;;6.40;99.90;;;;;;5067448;28;20202;-82
2021/04/17 05:56:56;;;;;;;3.42;2.17;;;6.70;99.90;;;;;;5067491;28;20223;-83
2021/04/17 05:59:23;;;;;;;3.55;2.53;;;6.40;99.90;;;;;;5065897;28;20624;-83
2021/04/17 06:01:49;;;;;;;3.47;1.80;;;6.40;99.90;;;;;;5067728;28;20206;-81
2021/04/17 06:04:15;;;;;;;4.63;2.20;;;6.50;99.90;;;;;;5075055;28;20217;-82
2021/04/17 06:06:41;;;;;;;3.70;2.00;;;6.50;99.90;;;;;;5067322;28;20229;-82
2021/04/17 06:09:07;;;;;;;3.72;2.17;;;6.50;99.90;;;;;;5065372;28;20206;-81
2021/04/17 06:11:35;;;;;;;2.63;1.90;;;6.40;99.90;;;;;;5064362;28;20253;-81
2021/04/17 06:14:01;;;;;;;2.90;1.80;;;6.30;99.90;;;;;;5066208;28;20272;-83
2021/04/17 06:16:28;;;;;;;5.80;1.90;;;6.30;99.90;;;;;;5061374;28;20219;-82
2021/04/17 06:18:54;;;;;;;3.28;2.63;;;6.40;99.90;;;;;;5059446;28;20191;-82
2021/04/17 06:21:20;;;;;;;4.85;2.05;;;6.50;99.90;;;;;;5057948;28;20451;-82
2021/04/17 06:23:46;;;;;;;3.60;1.80;;;6.40;99.90;;;;;;5059784;28;20450;-81
2021/04/17 06:26:12;;;;;;;9.25;2.17;;;6.50;99.90;;;;;;5059945;28;20238;-82
2021/04/17 06:28:38;;;;;;;2.97;1.77;;;6.30;99.90;;;;;;5062240;28;20238;-83
2021/04/17 06:31:04;;;;;;;2.40;1.83;;;6.40;99.90;;;;;;5069181;28;20202;-81
2021/04/17 06:33:31;;;;;;;3.65;2.10;;;6.40;99.90;;;;;;5073309;28;20199;-81
2021/04/17 06:35:58;;;;;;;4.20;1.48;;;6.30;99.90;;;;;;5071919;28;20269;-81
2021/04/17 06:38:25;;;;;;;5.32;2.45;;;6.40;99.90;;;;;;5071821;28;20203;-81
2021/04/17 06:40:51;;;;;;;2.58;2.10;;;6.50;99.90;;;;;;5065852;28;20211;-82
2021/04/17 06:43:21;;;;;;;2.33;1.83;;;6.20;99.90;;;;;;5065673;28;20199;-81
2021/04/17 06:45:48;;;;;;;2.50;2.00;;;6.20;99.90;;;;;;5076104;28;20219;-82
2021/04/17 06:48:16;;;;;;;7.43;3.13;;;6.10;99.90;;;;;;5075455;28;20639;-82
2021/04/17 06:50:43;;;;;;;3.72;2.42;;;6.20;99.90;;;;;;5075315;28;20199;-82
2021/04/17 06:53:12;;;;;;;2.83;2.03;;;6.20;99.90;;;;;;5072022;28;20205;-82
2021/04/17 06:55:40;;;;;;;4.75;2.22;;;6.50;99.90;;;;;;5070228;28;20223;-81
2021/04/17 06:58:06;;;;;;;5.15;2.00;;;6.20;99.90;;;;;;5070058;28;20203;-82
2021/04/17 07:00:33;;;;;;;5.78;2.20;;;6.10;99.90;;;;;;5071415;28;20203;-82
2021/04/17 07:02:59;;;;;;;4.72;2.65;;;6.10;99.90;;;;;;5071805;28;20203;-81
2021/04/17 07:05:25;;;;;;;7.18;2.10;;;6.10;99.90;;;;;;5067421;28;20310;-82
2021/04/17 07:07:52;;;;;;;4.28;2.08;;;6.40;99.90;;;;;;5075108;28;20230;-81
2021/04/17 07:10:18;;;;;;;4.25;1.95;;;6.50;99.90;;;;;;5065318;28;20211;-81
2021/04/17 07:12:45;;;;;;;3.15;2.83;;;6.40;99.90;;;;;;5063949;28;20317;-81
2021/04/17 07:15:14;;;;;;;2.33;2.10;;;6.20;99.90;;;;;;5063607;28;20207;-82
2021/04/17 07:17:41;;;;;;;2.80;2.40;;;6.20;99.90;;;;;;5063375;28;20203;-81
2021/04/17 07:20:09;;;;;;;6.32;3.17;;;6.40;99.90;;;;;;5064753;28;20257;-80
2021/04/17 07:22:36;;;;;;;4.60;2.40;;;6.60;99.90;;;;;;5066327;28;20380;-82
2021/04/17 07:25:18;;;;;;;9.05;3.38;;;6.80;99.90;;;;;;5065728;28;20211;-82
2021/04/17 07:27:46;;;;;;;4.20;2.00;;;6.60;99.90;;;;;;5072237;28;20455;-82
2021/04/17 07:30:29;;;;;;;2.38;2.15;;;6.50;99.90;;;;;;5070973;28;20453;-83
2021/04/17 07:33:11;;;;;;;3.40;2.85;;;6.60;99.90;;;;;;5069181;28;20211;-82
2021/04/17 07:35:40;;;;;;;6.18;2.95;;;6.60;99.90;;;;;;5066462;28;20304;-82
2021/04/17 07:38:12;;;;;;;2.28;2.08;;;6.70;99.90;;;;;;5064651;28;20206;-82
2021/04/17 07:40:40;;;;;;;6.45;2.95;;;6.90;99.90;;;;;;5064142;28;20440;-82
2021/04/17 07:43:06;;;;;;;2.10;1.75;;;6.50;99.90;;;;;;5064736;28;20264;-82
2021/04/17 07:45:36;;;;;;;2.88;2.15;;;6.60;99.90;;;;;;5064729;28;20223;-82
2021/04/17 07:48:19;;;;;;;4.68;3.10;;;6.60;99.90;;;;;;5077727;28;20214;-81
2021/04/17 07:50:46;;;;;;;4.05;2.80;;;6.70;99.90;;;;;;5071100;28;20207;-82
2021/04/17 07:53:25;;;;;;;8.02;3.17;;;6.80;99.90;;;;;;5064695;28;20202;-81
2021/04/17 07:55:52;;;;;;;7.22;2.80;;;6.70;99.90;;;;;;5076116;28;20229;-80
2021/04/17 07:58:18;;;;;;;8.32;2.20;;;6.60;99.90;;;;;;5077509;28;20203;-82
2021/04/17 08:00:45;;;;;;;4.10;2.20;;;7.10;99.90;;;;;;5072883;28;20203;-81
2021/04/17 08:03:12;;;;;;;6.40;3.03;;;6.90;99.90;;;;;;5073838;28;20203;-81
2021/04/17 08:05:43;;;;;;;2.28;2.08;;;7.00;99.90;;;;;;5073841;28;20219;-81
2021/04/17 08:08:09;;;;;;;5.35;2.35;;;7.10;99.90;;;;;;5071825;28;20212;-81
2021/04/17 08:10:36;;;;;;;6.38;2.13;;;7.20;99.90;;;;;;5069880;28;20202;-81
2021/04/17 08:13:07;;;;;;;7.45;2.47;;;7.30;99.90;;;;;;5068589;28;20206;-81
2021/04/17 08:15:33;;;;;;;8.27;2.17;;;7.00;99.90;;;;;;5064083;28;20234;-81
2021/04/17 08:17:59;;;;;;;8.38;2.80;;;7.00;99.90;;;;;;5062286;28;20256;-83
2021/04/17 08:20:26;;;;;;;8.23;3.15;;;7.00;99.90;;;;;;5062328;28;20203;-82
2021/04/17 08:22:54;;;;;;;5.20;2.75;;;7.30;99.90;;;;;;5062593;28;20678;-81
2021/04/17 08:25:22;;;;;;;9.30;2.75;;;7.40;99.90;;;;;;5062589;28;20234;-82
2021/04/17 08:27:49;;;;;;;4.70;2.42;;;7.40;99.90;;;;;;5062386;28;20211;-81
2021/04/17 08:30:21;;;;;;;7.28;2.55;;;7.50;99.90;;;;;;5061666;28;20292;-82
2021/04/17 08:32:48;;;;;;;3.60;2.90;;;7.90;99.90;;;;;;5060829;28;20195;-81
2021/04/17 08:35:15;;;;;;;5.95;3.08;;;8.00;99.90;;;;;;5061775;28;20227;-82
2021/04/17 08:38:09;;;;;;;5.47;2.97;;;7.80;99.90;;;;;;5069700;28;20202;-80
2021/04/17 08:40:47;;;;;;;6.63;3.00;;;8.00;99.90;;;;;;5073459;28;20182;-82
2021/04/17 08:43:29;;;;;;;3.70;2.50;;;8.00;99.90;;;;;;5064120;28;20191;-81
2021/04/17 08:46:02;;;;;;;5.30;2.88;;;8.40;99.90;;;;;;5071681;28;20249;-81
2021/04/17 08:48:51;;;;;;;6.20;3.03;;;8.40;99.90;;;;;;5073189;28;20666;-81
2021/04/17 08:51:37;;;;;;;6.78;2.83;;;8.30;99.90;;;;;;5065428;28;20219;-81
2021/04/17 08:54:15;;;;;;;4.18;3.00;;;8.20;99.90;;;;;;5061238;28;20183;-82
2021/04/17 08:56:47;;;;;;;5.67;3.80;;;8.50;99.90;;;;;;5061658;28;20231;-81
2021/04/17 08:59:18;;;;;;;6.60;3.70;;;8.20;99.90;;;;;;5061433;28;20424;-82
2021/04/17 09:01:48;;;;;;;4.45;2.80;;;8.10;99.90;;;;;;5061585;28;20198;-81
2021/04/17 09:04:15;;;;;;;7.85;3.20;;;8.30;99.90;;;;;;5066861;28;20238;-82
2021/04/17 09:06:43;;;;;;;10.00;4.35;;;8.30;99.90;;;;;;5072287;28;20223;-81
2021/04/17 09:09:33;;;;;;;4.70;3.43;;;8.30;99.90;;;;;;5070513;28;20263;-81
2021/04/17 09:12:25;;;;;;;7.97;2.97;;;8.20;99.90;;;;;;5068943;28;20456;-82
2021/04/17 09:14:59;;;;;;;9.50;4.40;;;8.10;99.90;;;;;;5070188;28;20183;-81
2021/04/17 09:17:50;;;;;;;9.30;6.22;;;8.00;99.90;;;;;;5068598;28;20195;-82
2021/04/17 09:20:38;;;;;;;6.47;3.90;;;8.80;99.90;;;;;;5048221;28;20206;-81
2021/04/17 09:23:05;;;;;;;5.47;3.50;;;8.90;99.90;;;;;;5063720;28;20456;-80
2021/04/17 09:25:41;;;;;;;6.63;3.50;;;8.70;99.90;;;;;;5062300;28;20242;-81
2021/04/17 09:28:07;;;;;;;5.40;3.17;;;9.10;99.90;;;;;;5061083;28;20500;-82
2021/04/17 09:30:34;;;;;;;6.73;3.53;;;9.10;99.90;;;;;;5064848;28;20409;-81
2021/04/17 09:33:01;;;;;;;4.23;3.50;;;9.30;99.90;;;;;;5073069;28;20453;-81
2021/04/17 09:35:29;;;;;;;5.00;3.23;;;9.20;99.90;;;;;;5066102;28;20491;-83
2021/04/17 09:38:01;;;;;;;3.80;3.07;;;9.20;99.90;;;;;;5063019;28;20477;-81
2021/04/17 09:40:32;;;;;;;4.87;3.00;;;9.80;99.90;;;;;;5064285;28;20452;-82
2021/04/17 09:42:58;;;;;;;7.30;3.10;;;9.70;99.90;;;;;;5063986;28;20432;-82
2021/04/17 09:45:32;;;;;;;7.97;2.87;;;9.50;99.90;;;;;;5075708;28;20457;-81
2021/04/17 09:48:01;;;;;;;6.87;2.70;;;9.50;99.90;;;;;;5077614;28;20463;-82
2021/04/17 09:50:30;;;;;;;4.80;3.00;;;9.50;99.90;;;;;;5077589;28;20411;-83
2021/04/17 09:53:13;;;;;;;9.57;4.10;;;10.10;99.90;;;;;;5071919;28;20434;-82
2021/04/17 09:55:47;;;;;;;5.00;3.30;;;9.70;99.90;;;;;;5071072;28;20444;-82
2021/04/17 09:58:23;;;;;;;4.67;2.90;;;10.10;99.90;;;;;;5077536;28;20443;-82
2021/04/17 10:00:50;;;;;;;4.50;3.30;;;10.20;99.90;;;;;;5076846;28;20422;-82
2021/04/17 10:03:26;;;;;;;5.73;3.63;;;10.00;99.90;;;;;;5077280;28;20436;-81
2021/04/17 10:05:53;;;;;;;6.07;3.33;;;9.80;99.90;;;;;;5076386;28;20468;-81
2021/04/17 10:08:30;;;;;;;6.77;3.40;;;10.10;99.90;;;;;;5078020;28;20493;-81
2021/04/17 10:10:57;;;;;;;5.03;3.87;;;9.80;99.90;;;;;;5077999;28;20408;-81
2021/04/17 10:13:37;;;;;;;6.93;3.80;;;10.00;99.90;;;;;;5077609;28;20446;-82
2021/04/17 10:16:03;;;;;;;6.20;4.10;;;10.00;99.90;;;;;;5076186;28;20987;-82
2021/04/17 10:18:30;;;;;;;6.93;4.03;;;9.90;99.90;;;;;;5077542;28;20476;-81
2021/04/17 10:20:56;;;;;;;6.43;4.40;;;9.30;99.90;;;;;;5077215;28;20429;-82
2021/04/17 10:23:22;;;;;;;9.83;4.20;;;10.30;99.90;;;;;;5076669;28;20449;-81
2021/04/17 10:34:23;;;;;;;;;;;;;;;;;;;;;
2021/04/17 10:40:59;;;;;;;8.73;4.30;;;10.90;99.90;;;;;;5050764;28;20460;-83
2021/04/17 10:47:06;;;;;;;9.40;4.43;;;10.90;99.90;;;;;;5062140;22;20479;-81
2021/04/17 10:49:36;;;;;;;4.70;4.30;;;10.80;99.90;;;;;;5061119;28;20503;-82
2021/04/17 10:52:05;;;;;;;11.20;4.67;;;10.70;99.90;;;;;;5065515;28;20424;-78
2021/04/17 10:54:32;;;;;;;9.77;4.57;;;10.70;99.90;;;;;;5075942;28;20398;-84
2021/04/17 10:57:07;;;;;;;6.40;4.60;;;;;;;;;;5075743;28;20477;-86
2021/04/17 10:59:56;;;;;;;9.17;4.47;;;10.60;99.90;;;;;;5072921;28;20424;-86
2021/04/17 11:02:30;;;;;;;7.50;5.30;;;10.50;99.90;;;;;;5069284;28;20441;-86
2021/04/17 11:04:59;;;;;;;8.27;4.80;;;11.20;99.90;;;;;;5069626;28;20404;-86
2021/04/17 11:07:33;;;;;;;11.27;4.60;;;11.30;99.90;;;;;;5072575;28;20477;-86
2021/04/17 11:10:01;;;;;;;6.07;4.60;;;11.40;99.90;;;;;;5071730;28;20460;-85
2021/04/17 11:12:32;;;;;;;6.30;4.10;;;11.90;99.90;;;;;;5070932;28;20424;-86
2021/04/17 11:15:20;;;;;;;8.17;4.80;;;;;;;;;;5072406;28;20445;-85
2021/04/17 11:18:10;;;;;;;5.43;4.50;;;12.20;99.90;;;;;;5075835;28;20486;-85
2021/04/17 11:20:47;;;;;;;8.47;4.80;;;12.60;99.90;;;;;;5076284;28;20396;-86
2021/04/17 11:23:35;;;;;;;5.33;4.80;;;11.60;99.90;;;;;;5078018;28;20429;-85
2021/04/17 11:26:04;;;;;;;14.70;5.30;;;11.70;99.90;;;;;;5078053;28;20490;-86
2021/04/17 11:28:31;;;;;;;7.67;5.37;;;;;;;;;;5075103;28;20474;-84
2021/04/17 11:30:58;;;;;;;6.30;4.10;;;;;;;;;;5077760;28;20834;-86
2021/04/17 11:33:25;;;;;;;14.93;5.37;;;;;;;;;;5079007;28;20452;-86
2021/04/17 11:35:58;;;;;;;8.47;5.43;;;;;;;;;;5078917;28;20456;-85
2021/04/17 11:38:25;;;;;;;10.17;5.20;;;;;;;;;;5078032;28;20460;-84
2021/04/17 11:40:52;;;;;;;11.43;5.47;;;11.40;99.90;;;;;;5077274;28;20416;-85
2021/04/17 11:43:23;;;;;;;10.97;5.07;;;11.60;99.90;;;;;;5079469;28;20432;-87
2021/04/17 11:45:52;;;;;;;9.00;5.40;;;;;;;;;;5072200;28;20440;-86
2021/04/17 11:48:19;;;;;;;12.23;5.30;;;;;;;;;;5073882;28;20223;-84
2021/04/17 11:50:46;;;;;;;15.80;5.23;;;12.40;99.90;;;;;;5073929;28;20441;-82
2021/04/17 11:53:16;;;;;;;9.40;4.57;;;;;;;;;;5075392;28;20489;-86
2021/04/17 11:55:50;;;;;;;11.87;5.60;;;;;;;;;;5076339;28;20425;-86
2021/04/17 11:58:17;;;;;;;6.83;5.07;;;;;;;;;;5073919;28;20406;-85
2021/04/17 12:00:47;;;;;;;9.30;5.53;;;;;;;;;;5075657;28;20420;-85
2021/04/17 12:03:20;;;;;;;6.20;5.50;;;11.70;99.90;;;;;;5074667;28;20480;-86
2021/04/17 12:05:46;;;;;;;6.97;4.40;;;;;;;;;;5073757;28;20422;-86
2021/04/17 12:08:14;;;;;;;8.67;5.20;;;11.60;99.90;;;;;;5075001;28;20463;-85
2021/04/17 12:10:40;;;;;;;9.37;7.37;;;;;;;;;;5075988;28;20422;-85
2021/04/17 12:13:10;;;;;;;7.00;5.37;;;11.60;99.90;;;;;;5074151;28;20536;-82
2021/04/17 12:15:37;;;;;;;6.63;4.67;;;;;;;;;;5074934;28;20441;-82
2021/04/17 12:18:09;;;;;;;6.53;5.17;;;12.10;99.90;;;;;;5074519;28;20440;-81
2021/04/17 12:20:39;;;;;;;14.30;5.73;;;12.90;99.90;;;;;;5075203;28;20456;-81
2021/04/17 12:23:05;;;;;;;6.97;4.83;;;12.60;99.90;;;;;;5069038;28;20440;-82
2021/04/17 12:25:34;;;;;;;7.57;5.30;;;12.50;99.90;;;;;;5071435;28;20858;-80
2021/04/17 12:28:10;;;;;;;8.50;5.93;;;12.60;99.90;;;;;;5070299;28;20464;-82
2021/04/17 12:30:38;;;;;;;13.40;5.57;;;12.60;99.90;;;;;;5073028;28;20414;-83
2021/04/17 12:33:10;;;;;;;11.33;5.73;;;;;;;;;;5066902;28;20960;-81
2021/04/17 12:35:38;;;;;;;11.57;5.20;;;;;;;;;;5070169;28;20458;-81
2021/04/17 12:38:04;;;;;;;9.50;4.73;;;;;;;;;;5064658;28;20468;-82
2021/04/17 12:40:31;;;;;;;7.67;5.17;;;;;;;;;;5068441;28;20449;-81
2021/04/17 12:42:58;;;;;;;8.40;5.80;;;12.40;99.90;;;;;;5075443;28;20479;-82
2021/04/17 12:45:28;;;;;;;7.30;5.83;;;12.40;99.90;;;;;;5070268;28;20455;-81
2021/04/17 12:47:55;;;;;;;9.13;6.10;;;;;;;;;;5062401;28;20484;-82
2021/04/17 12:50:24;;;;;;;8.30;5.83;;;12.30;99.90;;;;;;5062143;28;20468;-84
2021/04/17 12:52:53;;;;;;;8.10;5.97;;;12.40;99.90;;;;;;5063090;28;20449;-82
2021/04/17 12:55:28;;;;;;;9.97;6.53;;;;;;;;;;5068294;28;20445;-83
2021/04/17 12:57:55;;;;;;;7.43;5.63;;;;;;;;;;5069333;28;20439;-82
2021/04/17 13:00:24;;;;;;;10.20;6.30;;;12.60;99.90;;;;;;5064868;28;20471;-84
2021/04/17 13:02:58;;;;;;;8.93;6.33;;;12.70;99.90;;;;;;5061400;28;20408;-82
2021/04/17 13:08:07;;;;;;;18.73;10.33;;;;;;;;;;5061878;28;20489;-83
2021/04/17 13:10:34;;;;;;;23.00;10.83;;;;;;;;;;5067131;28;20827;-85
2021/04/17 13:13:00;;;;;;;10.80;8.97;;;12.70;99.90;;;;;;5060994;28;20424;-84
2021/04/17 13:15:27;;;;;;;9.77;7.40;;;12.80;99.90;;;;;;5060211;28;20503;-82
2021/04/17 13:17:54;;;;;;;12.23;7.60;;;12.50;99.90;;;;;;5066332;28;20472;-83
2021/04/17 13:20:20;;;;;;;7.03;5.80;;;12.40;99.90;;;;;;5062216;28;20430;-82
2021/04/17 13:22:46;;;;;;;15.20;7.43;;;12.20;99.90;;;;;;5065374;28;20472;-82
2021/04/17 13:25:14;;;;;;;7.30;6.30;;;12.00;99.90;;;;;;5062311;28;20445;-80
2021/04/17 13:27:41;;;;;;;10.53;6.00;;;12.40;99.90;;;;;;5068525;28;20484;-83
2021/04/17 13:30:08;;;;;;;9.43;6.73;;;12.10;99.90;;;;;;5071450;28;20602;-82